Flight Track Log - Related Links

Times and Time Zones

All times are in EDT time to prevent confusion due to time zone crossing. See the LOF3376 flight status page for this flight to view local times or setup timezone preferences in your user account.


Time Position Orientation Groundspeed Altitude Reporting Facility
EDT Latitude Longitude Course Direction KTS MPH feet Rate Location/Type
Fri 09:07:02 AM 42.0167 -87.8667 139° Southeast 176 203 2,600  Level Chicago TRACON
Fri 09:08:02 AM 42.0167 -87.8000 90° East 239 275 4,500 1,549 Climbing Chicago TRACON
Fri 09:10:00 AM 41.6322 -87.4999 156° South  Level Estimated
Fri 09:10:04 AM 41.8794 -87.7881 176° South 246 283 7,300  Level Chicago Center
Fri 09:11:00 AM 41.5446 -87.3989 159° South  Level Estimated
Fri 09:11:06 AM 41.8164 -87.8264 204° Southwest 256 295 10,100  Level Chicago Center
Fri 09:12:00 AM 41.4728 -87.3165 139° Southeast  Level Estimated
Fri 09:12:08 AM 41.7486 -87.7875 157° South 265 305 12,500  Level Chicago Center
Fri 09:13:09 AM 41.6806 -87.7433 154° Southeast 270 311 15,100 2,244 Climbing Chicago Center
Fri 09:14:11 AM 41.6122 -87.6972 153° Southeast 273 314 17,100 1,790 Climbing Chicago Center
Fri 09:15:13 AM 41.5389 -87.6486 154° Southeast 288 331 18,800 1,887 Climbing Chicago Center
Fri 09:16:15 AM 41.4739 -87.5764 140° Southeast 300 345 21,000 1,902 Climbing Chicago Center
Fri 09:17:16 AM 41.3819 -87.5133 153° Southeast 318 366 22,700 976 Climbing Chicago Center
Fri 09:18:18 AM 41.2939 -87.4664 158° South 334 384 23,000 145 Climbing Chicago Center
Fri 09:19:20 AM 41.1892 -87.4092 158° South 398 458 23,000  Level Chicago Center
Fri 09:20:22 AM 41.0831 -87.3511 158° South 411 473 23,000  Level Chicago Center
Fri 09:21:23 AM 40.9742 -87.2939 158° South 419 482 23,000  Level Chicago Center
Fri 09:22:25 AM 40.8686 -87.2369 158° South 413 475 23,000 242 Level Chicago Center
Fri 09:23:27 AM 40.7622 -87.1806 158° South 412 474 23,500 968 Climbing Chicago Center
Fri 09:24:29 AM 40.6381 -87.1147 158° South 403 464 25,000 732 Climbing Chicago Center
Fri 09:25:30 AM 40.5406 -87.0561 155° Southeast 406 467 25,000  Level Chicago Center
Fri 09:26:32 AM 40.4447 -86.9617 143° Southeast 429 494 25,000  Level Chicago Center
Fri 09:27:34 AM 40.3456 -86.8692 145° Southeast 437 503 25,000 -145 Level Chicago Center
Fri 09:28:36 AM 40.2467 -86.7744 144° Southeast 442 509 24,700 -1,258 Descending Chicago Center
Fri 09:29:38 AM 40.1378 -86.6728 144° Southeast 401 461 22,400 -1,963 Descending Chicago Center
Fri 09:30:23 AM 40.0861 -86.6233 144° Southeast 383 441 21,200 -1,570 Descending Indianapolis Center
Fri 09:31:25 AM 39.9908 -86.5328 144° Southeast 358 412 19,600 -1,306 Descending Indianapolis Center
Fri 09:32:27 AM 39.9061 -86.4536 144° Southeast 373 429 18,500 -950 Descending Indianapolis Center
Fri 09:33:25 AM 39.8167 -86.3667 143° Southeast 384 442 17,700 -915 Descending Indianapolis TRACON
Fri 09:34:25 AM 39.7833 -86.2500 110° East 390 449 16,700 -1,000 Descending Indianapolis TRACON
Fri 09:35:25 AM 39.7333 -86.1167 116° Southeast 387 445 15,700 -992 Descending Indianapolis TRACON
Fri 09:36:26 AM 39.7000 -86.0000 110° East 358 412 14,700 -843 Descending Indianapolis TRACON
Fri 09:37:26 AM 39.6500 -85.8833 119° Southeast 353 406 14,000 -700 Descending Indianapolis TRACON
Fri 09:38:26 AM 39.6167 -85.7667 110° East 357 411 13,300 -1,218 Descending Indianapolis TRACON
Fri 09:39:39 AM 39.5731 -85.6481 115° Southeast 334 384 11,300 -1,022 Descending Indianapolis Center
Fri 09:40:41 AM 39.5281 -85.5175 114° Southeast 330 380 11,000 -145 Descending Indianapolis Center
Fri 09:41:43 AM 39.4822 -85.4158 120° Southeast 330 380 11,000  Level Indianapolis Center
Fri 09:42:45 AM 39.4511 -85.2981 109° East 344 396 11,000 -242 Level Indianapolis Center
Fri 09:43:47 AM 39.4208 -85.1914 110° East 318 366 10,500 -1,016 Descending Indianapolis Center
Fri 09:44:49 AM 39.3936 -85.0983 111° Southeast 284 327 8,900 -1,548 Descending Indianapolis Center
Fri 09:45:51 AM 39.3692 -85.0133 110° East 257 296 7,300 -1,742 Descending Indianapolis Center
Fri 09:46:53 AM 39.3411 -84.9128 110° East 249 287 5,300 -1,320 Descending Indianapolis Center
Fri 09:47:31 AM 39.3167 -84.8667 124° Southeast 255 293 5,100 -306 Descending Cincinnati TRACON
Fri 09:48:31 AM 39.2833 -84.7833 117° Southeast 249 287 4,800 -850 Descending Cincinnati TRACON
Fri 09:49:31 AM 39.2500 -84.7167 123° Southeast 231 266 3,400 -1,150 Descending Cincinnati TRACON
Fri 09:50:31 AM 39.2000 -84.6833 153° Southeast 191 220 2,500 -900 Descending Cincinnati TRACON

Login

Don't have an account? Register now (free) for customized features, flight alerts, and more!